Time;durP1;ratioP1;P1;durP2;ratioP2;P2;SDS_P1;SDS_P2;PMS_P1;PMS_P2;Temp;Humidity;BMP_temperature;BMP_pressure;BME280_temperature;BME280_humidity;BME280_pressure;Samples;Min_cycle;Max_cycle;Signal;HPM_P1;HPM_P2
2022/03/26 00:00:37;;;;;;;72.68;37.40;;;;;;;6.42;55.50;101401.03;5015663;28;20433;-70
2022/03/26 00:03:05;;;;;;;74.05;36.78;;;;;;;6.42;54.84;101401.03;5015515;28;20395;-70
2022/03/26 00:05:46;;;;;;;73.05;35.72;;;;;;;6.42;55.88;101394.56;4998890;28;20505;-70
2022/03/26 00:08:12;;;;;;;72.22;35.17;;;;;;;6.36;55.91;101388.59;5016873;28;20025;-70
2022/03/26 00:10:39;;;;;;;79.40;35.33;;;;;;;6.41;56.11;101402.25;5016477;28;20044;-70
2022/03/26 00:13:05;;;;;;;69.18;35.72;;;;;;;6.44;56.27;101397.78;5016419;28;20494;-70
2022/03/26 00:15:31;;;;;;;71.38;36.78;;;;;;;6.45;56.16;101397.38;5016625;28;20159;-70
2022/03/26 00:17:58;;;;;;;72.60;34.92;;;;;;;6.46;56.56;101407.44;5020259;28;20456;-70
2022/03/26 00:20:24;;;;;;;77.07;36.15;;;;;;;6.43;56.68;101401.84;5036023;28;20041;-70
2022/03/26 00:22:50;;;;;;;69.22;35.03;;;;;;;6.42;55.60;101403.03;5034856;28;20029;-70
2022/03/26 00:25:17;;;;;;;70.70;35.92;;;;;;;6.38;56.05;101388.16;5050195;28;20116;-70
2022/03/26 00:27:44;;;;;;;66.55;36.00;;;;;;;6.39;56.68;101396.22;5035047;28;20043;-70
2022/03/26 00:30:11;;;;;;;73.28;37.08;;;;;;;6.37;56.50;101404.31;5018268;28;20516;-69
2022/03/26 00:32:37;;;;;;;66.65;34.28;;;;;;;6.35;56.14;101397.50;5018577;28;20037;-71
2022/03/26 00:35:06;;;;;;;72.55;35.22;;;;;;;6.25;56.76;101387.91;5001612;28;20436;-71
2022/03/26 00:37:32;;;;;;;81.78;37.53;;;;;;;6.29;56.38;101391.50;5035988;28;20029;-70
2022/03/26 00:39:58;;;;;;;73.97;35.03;;;;;;;6.25;57.00;101393.56;5034000;28;20086;-70
2022/03/26 00:42:25;;;;;;;73.32;34.00;;;;;;;6.29;56.97;101391.50;5018135;28;20034;-70
2022/03/26 00:44:51;;;;;;;74.95;33.65;;;;;;;6.29;57.61;101394.31;5035850;28;20037;-70
2022/03/26 00:47:18;;;;;;;69.22;34.63;;;;;;;6.29;56.90;101385.84;5035759;28;20025;-69
2022/03/26 00:49:44;;;;;;;77.68;36.55;;;;;;;6.27;57.17;101385.44;5035781;28;20021;-70
2022/03/26 00:52:12;;;;;;;70.03;34.58;;;;;;;6.26;57.85;101386.69;5035344;28;20052;-70
2022/03/26 00:54:37;;;;;;;76.20;36.35;;;;;;;6.18;57.20;101375.88;5035333;28;20032;-70
2022/03/26 00:57:03;;;;;;;73.47;33.10;;;;;;;6.21;57.84;101389.19;5036136;28;20029;-69
2022/03/26 00:59:28;;;;;;;85.55;36.17;;;;;;;6.15;57.22;101371.88;5017521;28;20029;-69
2022/03/26 01:01:55;;;;;;;65.65;35.22;;;;;;;6.14;57.23;101378.75;5017777;28;20037;-70
2022/03/26 01:04:21;;;;;;;79.25;36.35;;;;;;;6.00;57.35;101359.94;5035332;28;20029;-71
2022/03/26 01:06:46;;;;;;;74.43;35.45;;;;;;;6.12;57.75;101377.59;5035299;28;20026;-70
2022/03/26 01:09:13;;;;;;;72.95;36.35;;;;;;;6.08;57.65;101378.41;5017397;28;20028;-70
2022/03/26 01:11:38;;;;;;;79.20;35.40;;;;;;;6.07;58.10;101373.16;5016954;28;20477;-72
2022/03/26 01:14:12;;;;;;;77.20;34.88;;;;;;;6.15;59.03;101374.72;5016900;28;20041;-69
2022/03/26 01:16:38;;;;;;;74.50;35.67;;;;;;;6.12;57.97;101369.88;5035125;28;20026;-69
2022/03/26 01:19:05;;;;;;;79.07;36.95;;;;;;;6.11;58.68;101367.50;5014170;28;20050;-69
2022/03/26 01:21:32;;;;;;;71.28;36.22;;;;;;;6.06;58.35;101358.25;5015260;28;20033;-71
2022/03/26 01:23:58;;;;;;;82.47;35.10;;;;;;;6.10;59.01;101360.22;5015547;28;20025;-70
2022/03/26 01:26:25;;;;;;;86.07;36.97;;;;;;;6.15;58.74;101362.59;5015025;28;20026;-71
2022/03/26 01:28:51;;;;;;;66.38;34.42;;;;;;;6.13;58.91;101356.53;5013945;28;20034;-70
2022/03/26 01:31:19;;;;;;;70.35;34.03;;;;;;;6.19;58.75;101357.69;5015103;28;20068;-71
2022/03/26 01:33:47;;;;;;;72.50;33.90;;;;;;;6.20;58.94;101357.28;5015274;28;20072;-71
2022/03/26 01:36:13;;;;;;;73.53;34.63;;;;;;;6.20;59.89;101359.28;4997393;28;20029;-71
2022/03/26 01:38:40;;;;;;;64.70;32.95;;;;;;;6.21;59.28;101347.56;5014661;28;20107;-70
2022/03/26 01:41:08;;;;;;;70.90;34.22;;;;;;;6.19;59.44;101354.84;5011958;28;20037;-70
2022/03/26 01:43:35;;;;;;;72.80;34.65;;;;;;;6.21;59.49;101358.06;4997296;28;20046;-70
2022/03/26 01:46:02;;;;;;;68.30;33.38;;;;;;;6.21;59.72;101346.75;5013504;28;20075;-70
2022/03/26 01:48:30;;;;;;;70.22;33.90;;;;;;;6.28;60.38;101341.78;4996907;28;20056;-70
2022/03/26 01:50:57;;;;;;;70.93;31.90;;;;;;;6.23;59.77;101342.25;5014537;28;20152;-70
2022/03/26 01:53:23;;;;;;;68.88;31.42;;;;;;;6.15;59.49;101340.75;5014741;28;20455;-71
2022/03/26 01:56:04;;;;;;;67.13;30.83;;;;;;;6.18;59.77;101347.59;5014477;28;20505;-71
2022/03/26 01:58:30;;;;;;;71.15;32.65;;;;;;;6.17;60.48;101340.34;5014360;28;20040;-71
2022/03/26 02:00:56;;;;;;;64.55;30.98;;;;;;;6.15;60.37;101352.06;5014490;28;20029;-70
2022/03/26 02:03:23;;;;;;;66.28;33.40;;;;;;;6.13;60.28;101350.88;5011823;28;20074;-70
2022/03/26 02:05:52;;;;;;;62.90;31.40;;;;;;;6.11;60.25;101347.69;5014492;28;20053;-70
2022/03/26 02:08:18;;;;;;;58.70;29.95;;;;;;;6.11;60.75;101356.97;5013335;28;20029;-71
2022/03/26 02:10:45;;;;;;;69.20;29.58;;;;;;;6.04;60.80;101354.22;5012581;28;20034;-70
2022/03/26 02:13:11;;;;;;;72.45;31.08;;;;;;;5.99;60.34;101351.88;5013166;28;20029;-70
2022/03/26 02:15:37;;;;;;;63.42;29.88;;;;;;;5.95;61.25;101343.44;5014047;28;20029;-70
2022/03/26 02:18:03;;;;;;;60.60;30.27;;;;;;;5.93;61.01;101339.41;5019036;28;20049;-70
2022/03/26 02:20:30;;;;;;;62.72;30.25;;;;;;;5.96;61.31;101344.25;5033694;28;20025;-70
2022/03/26 02:22:57;;;;;;;63.47;32.35;;;;;;;5.91;60.72;101348.34;5033660;28;20030;-71
2022/03/26 02:25:25;;;;;;;63.35;29.42;;;;;;;5.88;61.26;101346.31;5016073;28;20033;-70
2022/03/26 02:27:50;;;;;;;62.10;30.85;;;;;;;5.87;61.64;101339.06;5015851;28;20030;-71
2022/03/26 02:30:16;;;;;;;67.60;30.63;;;;;;;5.91;61.60;101337.03;5032466;28;20094;-70
2022/03/26 02:32:43;;;;;;;61.45;29.23;;;;;;;6.02;61.80;101351.00;5015297;28;20427;-70
2022/03/26 02:35:09;;;;;;;63.05;30.77;;;;;;;5.95;61.60;101345.44;5033804;28;20029;-71
2022/03/26 02:37:35;;;;;;;64.20;31.30;;;;;;;5.90;61.23;101346.72;5016015;28;20546;-71
2022/03/26 02:40:06;;;;;;;71.32;31.38;;;;;;;5.91;62.32;101356.00;5031979;28;20421;-71
2022/03/26 02:42:37;;;;;;;59.50;30.97;;;;;;;5.83;61.97;101341.09;5032368;28;20034;-70
2022/03/26 02:45:04;;;;;;;67.53;29.42;;;;;;;5.81;61.39;101342.75;5033148;28;20682;-70
2022/03/26 02:47:30;;;;;;;64.72;29.33;;;;;;;5.81;62.42;101345.59;5032068;28;20099;-69
2022/03/26 02:49:56;;;;;;;65.32;31.60;;;;;;;5.73;61.67;101344.84;5033383;28;20128;-69
2022/03/26 02:52:23;;;;;;;64.03;29.92;;;;;;;5.68;62.59;101336.03;5031987;28;20454;-70
2022/03/26 02:55:04;;;;;;;62.97;30.58;;;;;;;5.70;62.74;101345.69;4999076;28;20425;-70
2022/03/26 02:57:31;;;;;;;65.30;28.23;;;;;;;5.74;63.00;101345.66;5032929;28;20486;-70
2022/03/26 02:59:57;;;;;;;59.33;29.15;;;;;;;5.74;63.10;101335.16;5032926;28;20017;-70
2022/03/26 03:02:23;;;;;;;64.45;29.38;;;;;;;5.79;62.97;101334.69;5032021;28;20036;-70
2022/03/26 03:04:50;;;;;;;69.75;32.42;;;;;;;5.77;62.87;101334.34;5033101;28;20104;-70
2022/03/26 03:07:17;;;;;;;57.80;29.98;;;;;;;5.76;62.44;101331.91;5015086;28;20022;-70
2022/03/26 03:09:42;;;;;;;56.83;28.45;;;;;;;5.71;63.19;101333.19;5032974;28;20029;-71
2022/03/26 03:12:10;;;;;;;56.15;28.92;;;;;;;5.66;63.43;101325.16;5033253;28;20025;-71
2022/03/26 03:14:36;;;;;;;57.63;27.83;;;;;;;5.69;63.16;101329.16;4998698;28;20429;-70
2022/03/26 03:17:10;;;;;;;54.45;28.20;;;;;;;5.64;63.76;101325.56;5032708;28;20041;-71
2022/03/26 03:19:36;;;;;;;61.63;29.13;;;;;;;5.67;63.31;101323.13;5028033;28;20054;-70
2022/03/26 03:22:03;;;;;;;55.83;27.90;;;;;;;5.71;64.30;101318.25;5012001;28;20030;-71
2022/03/26 03:24:30;;;;;;;59.08;27.92;;;;;;;5.75;63.83;101319.00;5011535;28;20042;-70
2022/03/26 03:26:56;;;;;;;55.53;28.38;;;;;;;5.78;63.82;101323.81;5012428;28;20124;-71
2022/03/26 03:29:22;;;;;;;57.22;30.05;;;;;;;5.85;64.47;101323.72;5011708;28;20018;-71
2022/03/26 03:31:48;;;;;;;56.85;27.50;;;;;;;5.86;63.84;101312.00;4995613;28;20045;-69
2022/03/26 03:34:16;;;;;;;59.20;28.45;;;;;;;5.90;64.32;101307.13;5011631;28;20076;-72
2022/03/26 03:36:42;;;;;;;59.85;27.92;;;;;;;5.87;63.96;101310.03;5012939;28;20025;-70
2022/03/26 03:39:07;;;;;;;52.00;26.35;;;;;;;5.83;64.34;101304.34;5011663;28;20482;-71
2022/03/26 03:41:35;;;;;;;67.22;28.65;;;;;;;5.97;64.33;101306.25;5011660;28;20033;-70
2022/03/26 03:44:04;;;;;;;59.45;27.92;;;;;;;5.99;64.15;101312.28;5011776;28;20092;-70
2022/03/26 03:46:30;;;;;;;58.05;27.63;;;;;;;5.90;64.72;101317.66;5011842;28;20048;-70
2022/03/26 03:48:57;;;;;;;51.65;26.70;;;;;;;5.80;64.51;101310.88;4995306;28;20029;-71
2022/03/26 03:51:22;;;;;;;50.45;27.67;;;;;;;5.74;64.85;101309.72;5011509;28;20471;-70
2022/03/26 03:53:49;;;;;;;56.42;26.95;;;;;;;5.69;64.64;101306.53;5011387;28;20068;-70
2022/03/26 03:56:17;;;;;;;62.35;29.00;;;;;;;5.68;65.22;101310.59;4994832;28;20036;-70
2022/03/26 03:58:43;;;;;;;58.40;29.05;;;;;;;5.63;64.51;101312.66;5012911;28;20124;-71
2022/03/26 04:01:09;;;;;;;64.22;30.15;;;;;;;5.58;64.37;101306.66;5011412;28;20022;-69
2022/03/26 04:03:36;;;;;;;62.05;27.92;;;;;;;5.55;65.03;101311.13;5012941;28;20052;-70
2022/03/26 04:06:03;;;;;;;54.70;28.15;;;;;;;5.53;64.86;101316.41;5011440;28;20485;-70
2022/03/26 04:08:29;;;;;;;52.80;25.55;;;;;;;5.54;64.62;101318.00;5011810;28;20072;-70
2022/03/26 04:10:54;;;;;;;59.97;28.65;;;;;;;5.53;65.57;101316.41;5011532;28;20030;-70
2022/03/26 04:13:19;;;;;;;55.03;26.83;;;;;;;5.56;64.97;101306.28;5012715;28;20032;-70
2022/03/26 04:15:45;;;;;;;54.70;27.17;;;;;;;5.58;65.75;101309.47;5012432;28;20479;-71
2022/03/26 04:18:11;;;;;;;56.53;27.30;;;;;;;5.52;65.53;101302.72;5011277;28;20498;-69
2022/03/26 04:20:37;;;;;;;57.08;25.42;;;;;;;5.54;65.79;101308.72;5012629;28;20101;-70
2022/03/26 04:23:04;;;;;;;53.42;26.55;;;;;;;5.48;65.83;101299.91;5010374;28;20034;-71
2022/03/26 04:25:44;;;;;;;60.05;29.02;;;;;;;5.56;65.63;101309.94;5013133;28;20160;-70
2022/03/26 04:28:10;;;;;;;53.25;27.80;;;;;;;5.55;65.35;101307.50;5016353;28;20030;-71
2022/03/26 04:30:50;;;;;;;58.40;27.02;;;;;;;5.58;66.58;101306.66;5016186;28;20033;-70
2022/03/26 04:33:16;;;;;;;65.22;28.48;;;;;;;5.57;65.54;101305.09;5014821;28;20022;-70
2022/03/26 04:35:42;;;;;;;60.33;25.75;;;;;;;5.57;65.82;101307.91;5047978;28;20088;-72
2022/03/26 04:38:07;;;;;;;53.70;26.17;;;;;;;5.57;66.21;101310.72;5015785;28;20046;-70
2022/03/26 04:40:34;;;;;;;54.25;27.75;;;;;;;5.57;66.12;101308.72;5014450;28;20545;-70
2022/03/26 04:43:00;;;;;;;50.40;26.35;;;;;;;5.58;65.93;101307.47;5014925;28;20088;-69
2022/03/26 04:45:29;;;;;;;61.55;28.27;;;;;;;5.58;65.84;101315.94;5016242;28;20475;-70
2022/03/26 04:47:56;;;;;;;59.95;27.95;;;;;;;5.63;66.20;101304.19;4982059;28;20026;-69
2022/03/26 04:50:22;;;;;;;54.60;26.73;;;;;;;5.68;66.08;101311.38;5015100;28;20045;-70
2022/03/26 04:52:49;;;;;;;59.15;27.60;;;;;;;5.76;66.82;101314.97;5015795;28;20026;-70
2022/03/26 04:55:18;;;;;;;53.47;25.55;;;;;;;5.80;66.23;101313.69;5015773;28;20033;-70
2022/03/26 04:57:49;;;;;;;57.15;26.42;;;;;;;5.90;66.33;101309.97;5014514;28;20081;-70
2022/03/26 05:00:17;;;;;;;52.53;24.97;;;;;;;5.96;66.42;101304.66;5014683;28;20040;-69
2022/03/26 05:02:44;;;;;;;48.00;25.23;;;;;;;5.95;65.64;101303.84;5014508;28;20061;-69
2022/03/26 05:05:10;;;;;;;55.35;27.73;;;;;;;6.13;65.72;101309.25;5015486;28;20080;-69
2022/03/26 05:07:49;;;;;;;61.03;26.55;;;;;;;6.22;66.24;101297.41;5014576;28;20061;-69
2022/03/26 05:10:21;;;;;;;57.78;27.38;;;;;;;6.34;65.54;101302.53;5014086;28;20099;-70
2022/03/26 05:12:49;;;;;;;48.40;24.92;;;;;;;6.38;65.53;101306.91;4997840;28;20053;-70
2022/03/26 05:15:17;;;;;;;60.80;26.30;;;;;;;6.53;64.38;101296.19;5014162;28;20034;-70
2022/03/26 05:17:45;;;;;;;56.38;26.77;;;;;;;6.56;65.19;101295.34;5015519;28;20038;-71
2022/03/26 05:20:14;;;;;;;46.80;25.10;;;;;;;6.62;64.64;101292.81;5017106;28;20029;-71
2022/03/26 05:22:45;;;;;;;58.08;26.63;;;;;;;6.70;64.47;101295.13;5017202;28;20034;-70
2022/03/26 05:25:13;;;;;;;55.47;24.97;;;;;;;6.73;63.77;101294.25;5017102;28;20029;-70
2022/03/26 05:27:52;;;;;;;45.70;24.20;;;;;;;6.75;64.15;101299.50;5017243;28;20118;-70
2022/03/26 05:30:26;;;;;;;59.45;26.45;;;;;;;6.79;63.80;101289.72;5035530;28;20116;-70
2022/03/26 05:32:52;;;;;;;50.97;24.58;;;;;;;6.70;64.13;101275.31;5035317;28;20041;-69
2022/03/26 05:35:19;;;;;;;51.60;25.73;;;;;;;6.97;63.41;101297.91;5016021;28;20571;-70
2022/03/26 05:37:53;;;;;;;53.65;25.42;;;;;;;7.07;63.81;101293.28;5000555;28;20068;-69
2022/03/26 05:40:23;;;;;;;51.90;24.77;;;;;;;7.16;63.32;101290.69;5034525;28;20026;-70
2022/03/26 05:42:57;;;;;;;52.97;26.88;;;;;;;7.30;62.98;101301.81;5016982;28;20068;-69
2022/03/26 05:45:24;;;;;;;48.40;24.77;;;;;;;7.45;62.41;101305.19;5049724;28;20025;-70
2022/03/26 05:47:51;;;;;;;51.90;25.33;;;;;;;7.60;62.24;101298.78;5034348;28;20040;-70
2022/03/26 05:50:18;;;;;;;47.08;25.80;;;;;;;7.76;61.85;101292.41;5016719;28;20104;-70
2022/03/26 05:52:43;;;;;;;49.97;24.38;;;;;;;7.86;60.90;101290.59;5034406;28;20021;-69
2022/03/26 05:55:09;;;;;;;52.47;24.88;;;;;;;7.99;61.20;101297.22;5049501;28;20025;-70
2022/03/26 05:57:35;;;;;;;52.35;26.40;;;;;;;8.05;61.10;101303.97;5033288;28;20112;-70
2022/03/26 06:00:10;;;;;;;49.33;26.90;;;;;;;8.17;60.69;101301.28;5034678;28;20113;-70
2022/03/26 06:02:36;;;;;;;60.38;24.92;;;;;;;8.31;60.14;101303.03;5050612;28;20021;-70
2022/03/26 06:05:03;;;;;;;48.17;25.15;;;;;;;8.46;59.82;101295.78;5032565;28;20029;-71
2022/03/26 06:07:29;;;;;;;50.60;26.08;;;;;;;8.66;59.16;101299.38;5033915;28;20111;-70
2022/03/26 06:09:55;;;;;;;50.50;25.27;;;;;;;8.82;58.95;101303.47;5034189;28;20095;-70
2022/03/26 06:12:20;;;;;;;46.90;26.40;;;;;;;9.00;58.50;101293.28;5016075;28;20111;-70
2022/03/26 06:14:46;;;;;;;48.53;26.63;;;;;;;9.23;58.08;101305.69;5016145;28;20040;-70
2022/03/26 06:17:14;;;;;;;47.97;25.45;;;;;;;9.66;57.46;101296.84;5033910;28;20108;-70
2022/03/26 06:19:42;;;;;;;44.00;23.35;;;;;;;9.98;54.92;101300.38;5015659;28;20897;-70
2022/03/26 06:22:08;;;;;;;44.42;23.10;;;;;;;10.25;55.30;101307.75;4999503;28;20029;-70
2022/03/26 06:24:35;;;;;;;49.50;24.13;;;;;;;11.16;52.71;101306.84;5015665;28;20075;-71
2022/03/26 06:27:02;;;;;;;47.63;22.55;;;;;;;12.80;49.57;101290.97;5015908;28;20536;-70
2022/03/26 06:29:28;;;;;;;44.10;23.58;;;;;;;14.67;44.42;101275.28;5015743;28;20478;-70
2022/03/26 06:31:55;;;;;;;49.25;23.60;;;;;;;16.31;40.54;101277.00;5033394;28;20022;-69
2022/03/26 06:34:24;;;;;;;42.38;23.23;;;;;;;17.55;37.80;101279.22;5049012;28;20021;-69
2022/03/26 06:36:50;;;;;;;50.15;24.33;;;;;;;18.59;36.27;101280.16;5034034;28;20080;-70
2022/03/26 06:39:17;;;;;;;52.72;24.25;;;;;;;19.87;33.34;101274.38;5033873;28;20022;-71
2022/03/26 06:41:44;;;;;;;43.55;23.90;;;;;;;21.18;31.74;101262.66;5033413;28;20017;-70
2022/03/26 06:44:12;;;;;;;45.25;23.98;;;;;;;22.56;28.81;101268.31;5016254;28;20021;-71
2022/03/26 06:46:42;;;;;;;43.63;23.33;;;;;;;23.58;27.09;101264.72;5015752;28;20029;-70
2022/03/26 06:49:08;;;;;;;46.20;25.65;;;;;;;23.88;25.35;101268.28;5033253;28;20049;-71
2022/03/26 06:51:36;;;;;;;42.92;23.13;;;;;;;22.62;26.62;101269.88;5033374;28;20025;-70
2022/03/26 06:54:03;;;;;;;38.58;23.48;;;;;;;20.76;29.75;101277.44;5015674;28;20371;-70
2022/03/26 06:56:29;;;;;;;40.08;23.58;;;;;;;20.78;30.17;101269.00;5015592;28;20026;-72
2022/03/26 06:58:56;;;;;;;42.20;23.50;;;;;;;22.04;28.54;101269.22;5033135;28;20075;-71
2022/03/26 07:01:21;;;;;;;40.22;23.98;;;;;;;23.27;26.64;101265.31;5033816;28;20029;-71
2022/03/26 07:03:49;;;;;;;40.53;24.00;;;;;;;24.60;25.38;101260.63;5015479;28;20029;-70
2022/03/26 07:06:16;;;;;;;44.58;23.58;;;;;;;25.85;23.07;101250.59;5032976;28;20017;-70
2022/03/26 07:08:42;;;;;;;39.33;22.05;;;;;;;26.85;21.81;101253.25;5032643;28;20030;-71
2022/03/26 07:11:10;;;;;;;37.75;23.60;;;;;;;27.76;20.93;101265.69;5033622;28;20037;-72
2022/03/26 07:13:37;;;;;;;36.15;21.67;;;;;;;28.31;19.30;101255.22;5033299;28;20034;-72
2022/03/26 07:16:04;;;;;;;39.38;22.35;;;;;;;28.64;19.28;101262.09;5015383;28;20040;-71
2022/03/26 07:18:30;;;;;;;48.72;22.67;;;;;;;28.72;18.87;101268.78;5032600;28;20616;-71
2022/03/26 07:21:00;;;;;;;37.67;22.85;;;;;;;28.51;19.47;101259.38;5032942;28;20061;-71
2022/03/26 07:23:34;;;;;;;39.88;22.75;;;;;;;29.03;19.30;101263.72;5031393;28;20033;-72
2022/03/26 07:26:00;;;;;;;34.38;22.20;;;;;;;29.97;18.60;101265.34;5048464;28;20044;-72
2022/03/26 07:28:27;;;;;;;38.00;22.13;;;;;;;30.50;17.86;101263.53;5015166;28;20017;-72
2022/03/26 07:30:53;;;;;;;45.03;23.08;;;;;;;30.32;17.57;101269.31;5015159;28;20072;-73
2022/03/26 07:33:18;;;;;;;38.78;21.38;;;;;;;29.98;17.83;101275.75;5033001;28;20026;-73
2022/03/26 07:35:45;;;;;;;43.90;22.58;;;;;;;29.88;18.15;101265.97;5048096;28;20025;-72
2022/03/26 07:38:12;;;;;;;40.22;22.45;;;;;;;29.78;18.58;101262.06;5032690;28;20018;-72
2022/03/26 07:40:38;;;;;;;37.92;21.30;;;;;;;30.04;18.37;101260.84;5014555;28;20115;-72
2022/03/26 07:43:07;;;;;;;42.97;21.13;;;;;;;30.44;17.35;101252.75;5033249;28;20032;-72
2022/03/26 07:45:33;;;;;;;39.72;22.17;;;;;;;30.01;18.10;101259.84;5033477;28;20033;-73
2022/03/26 07:47:59;;;;;;;36.03;21.00;;;;;;;29.81;18.06;101257.16;5015373;28;20078;-71
2022/03/26 07:50:25;;;;;;;40.55;20.70;;;;;;;29.73;18.86;101254.25;5032963;28;20078;-72
2022/03/26 07:52:51;;;;;;;39.80;20.50;;;;;;;29.90;17.86;101251.47;5015038;28;20429;-73
2022/03/26 07:55:18;;;;;;;36.30;20.20;;;;;;;29.87;18.22;101254.78;5014702;28;20025;-72
2022/03/26 07:57:45;;;;;;;43.67;20.38;;;;;;;29.85;18.27;101248.75;5032590;28;20042;-73
2022/03/26 08:00:12;;;;;;;37.60;19.02;;;;;;;29.22;17.69;101239.06;5032866;28;20029;-72
2022/03/26 08:02:45;;;;;;;41.30;19.73;;;;;;;28.79;18.93;101246.72;5050430;28;20036;-73
2022/03/26 08:05:12;;;;;;;33.55;18.73;;;;;;;28.40;19.54;101242.13;5036445;28;20036;-71
2022/03/26 08:07:37;;;;;;;36.08;18.63;;;;;;;28.56;19.50;101234.94;5018793;28;20497;-72
2022/03/26 08:10:04;;;;;;;46.47;18.15;;;;;;;27.98;19.56;101211.47;5018567;28;20026;-73
2022/03/26 08:12:31;;;;;;;47.15;17.15;;;;;;;27.29;20.46;101211.13;5036124;28;20485;-72
2022/03/26 08:14:57;;;;;;;46.63;17.63;;;;;;;26.61;21.01;101210.56;5036465;28;20101;-72
2022/03/26 08:17:28;;;;;;;38.00;18.17;;;;;;;26.16;21.47;101213.78;5036471;28;20041;-73
2022/03/26 08:19:54;;;;;;;53.90;20.88;;;;;;;26.41;21.66;101226.75;5031185;28;20046;-73
2022/03/26 08:22:19;;;;;;;48.00;17.88;;;;;;;26.78;21.21;101218.91;5016431;28;20033;-73
2022/03/26 08:24:46;;;;;;;39.17;18.02;;;;;;;26.83;21.40;101220.91;5016693;28;20110;-73
2022/03/26 08:27:12;;;;;;;67.18;19.48;;;;;;;26.60;21.18;101220.69;5014949;28;20121;-72
2022/03/26 08:29:52;;;;;;;41.97;17.17;;;;;;;26.89;21.12;101218.66;5016535;28;20025;-73
2022/03/26 08:32:26;;;;;;;33.65;17.33;;;;;;;26.67;21.35;101227.97;5016836;28;20426;-73
2022/03/26 08:34:52;;;;;;;38.25;17.38;;;;;;;26.81;21.59;101227.31;5015946;28;20080;-72
2022/03/26 08:37:19;;;;;;;45.50;17.48;;;;;;;27.03;20.96;101214.28;5016135;28;20557;-72
2022/03/26 08:39:46;;;;;;;63.28;18.70;;;;;;;26.67;21.63;101225.03;5015569;28;20097;-73
2022/03/26 08:42:13;;;;;;;38.08;16.77;;;;;;;26.67;21.86;101230.88;5015711;28;20022;-72
2022/03/26 08:44:38;;;;;;;33.92;16.33;;;;;;;26.72;21.69;101232.88;5015661;28;20034;-72
2022/03/26 08:47:19;;;;;;;68.70;18.85;;;;;;;26.62;21.02;101235.53;5014320;28;20025;-72
2022/03/26 08:49:45;;;;;;;55.10;18.20;;;;;;;26.18;21.59;101225.69;5014230;28;20119;-72
2022/03/26 08:52:13;;;;;;;75.85;21.00;;;;;;;25.75;21.74;101224.00;5014713;28;20471;-72
2022/03/26 08:54:42;;;;;;;59.55;17.50;;;;;;;25.32;22.16;101217.72;5015819;28;20033;-72
2022/03/26 08:57:08;;;;;;;45.58;18.23;;;;;;;25.24;22.28;101214.69;5014552;28;20029;-72
2022/03/26 08:59:35;;;;;;;36.00;17.38;;;;;;;25.18;22.72;101213.22;5015589;28;20100;-72
2022/03/26 09:02:00;;;;;;;32.97;17.73;;;;;;;25.26;22.85;101187.91;5014013;28;20034;-72
2022/03/26 09:04:34;;;;;;;45.35;19.55;;;;;;;25.23;22.80;101186.88;5014958;28;20507;-72
2022/03/26 09:07:00;;;;;;;36.83;17.35;;;;;;;24.73;23.23;101201.59;5014534;28;20040;-72
2022/03/26 09:09:25;;;;;;;41.38;17.50;;;;;;;24.22;24.67;101197.97;5015355;28;20026;-70
2022/03/26 09:11:50;;;;;;;45.95;18.27;;;;;;;24.18;23.60;101209.13;5015158;28;20173;-72
2022/03/26 09:14:18;;;;;;;48.38;18.38;;;;;;;24.24;23.77;101198.97;5015187;28;20018;-72
2022/03/26 09:16:45;;;;;;;46.75;18.08;;;;;;;24.14;23.82;101199.91;5014900;28;20062;-71
2022/03/26 09:19:10;;;;;;;39.40;18.48;;;;;;;24.20;23.38;101200.66;5027679;28;20050;-71
2022/03/26 09:21:38;;;;;;;40.45;18.35;;;;;;;24.27;24.68;101197.09;5034618;28;20111;-73
2022/03/26 09:24:04;;;;;;;38.63;17.90;;;;;;;24.34;24.56;101184.78;5034346;28;20558;-72
2022/03/26 09:26:29;;;;;;;43.13;19.13;;;;;;;24.00;23.81;101185.31;5034883;28;20108;-71
2022/03/26 09:28:56;;;;;;;59.25;19.17;;;;;;;23.47;24.24;101195.06;5034651;28;20067;-73
2022/03/26 09:31:23;;;;;;;92.47;22.20;;;;;;;23.40;24.58;101186.91;5034703;28;20493;-70
2022/03/26 09:33:49;;;;;;;48.05;17.17;;;;;;;23.45;25.02;101191.91;5035074;28;20029;-72
2022/03/26 09:36:16;;;;;;;59.95;19.60;;;;;;;23.43;25.13;101195.34;5034997;28;20025;-72
2022/03/26 09:38:41;;;;;;;108.85;21.92;;;;;;;23.07;24.89;101196.81;5034810;28;20055;-71
2022/03/26 09:41:08;;;;;;;141.23;26.67;;;;;;;22.91;25.45;101181.13;5034922;28;20036;-71
2022/03/26 09:43:35;;;;;;;61.67;19.73;;;;;;;22.70;26.27;101182.91;5033698;28;20060;-72
2022/03/26 09:46:00;;;;;;;46.30;18.20;;;;;;;22.60;26.35;101193.28;5017195;28;20103;-72
2022/03/26 09:48:27;;;;;;;78.15;20.95;;;;;;;22.62;26.47;101174.00;5017200;28;20080;-72
2022/03/26 09:50:53;;;;;;;74.85;19.85;;;;;;;22.45;25.73;101181.31;5016857;28;20410;-71
2022/03/26 09:53:19;;;;;;;65.35;20.73;;;;;;;22.39;26.05;101176.34;5034573;28;20028;-71
2022/03/26 09:55:44;;;;;;;56.15;20.77;;;;;;;22.36;26.36;101183.22;5016532;28;20375;-74
2022/03/26 09:58:12;;;;;;;47.35;17.50;;;;;;;22.27;26.14;101186.47;5016657;28;20124;-70
2022/03/26 10:00:39;;;;;;;42.95;18.20;;;;;;;22.15;26.09;101173.34;5034424;28;20105;-71
2022/03/26 10:03:05;;;;;;;53.05;17.58;;;;;;;22.18;26.31;101174.41;5029817;28;20387;-73
2022/03/26 10:05:34;;;;;;;94.13;19.08;;;;;;;22.26;24.99;101173.28;5034378;28;20025;-72
2022/03/26 10:08:23;;;;;;;63.22;16.42;;;;;;;22.12;25.20;101156.22;5034069;28;20029;-71
2022/03/26 10:10:57;;;;;;;51.13;14.82;;;;;;;21.87;25.30;101176.44;5016301;28;20022;-71
2022/03/26 10:13:43;;;;;;;64.43;16.15;;;;;;;21.57;26.26;101163.94;5049652;28;20027;-72
2022/03/26 10:16:12;;;;;;;84.03;16.70;;;;;;;21.42;26.19;101154.81;5016443;28;20545;-72
2022/03/26 10:18:42;;;;;;;207.30;25.92;;;;;;;21.28;25.71;101158.81;5012639;28;20046;-71
2022/03/26 10:21:11;;;;;;;57.13;16.00;;;;;;;20.92;26.42;101172.38;5012923;28;20486;-70
2022/03/26 10:23:58;;;;;;;51.00;14.88;;;;;;;20.86;26.91;101165.81;4996115;28;20041;-70
2022/03/26 10:26:25;;;;;;;76.70;15.88;;;;;;;20.88;26.89;101158.16;5013819;28;20049;-71
2022/03/26 10:28:57;;;;;;;40.65;12.60;;;;;;;20.63;27.84;101145.56;5013132;28;20030;-70
2022/03/26 10:34:14;;;;;;;34.33;11.50;;;;;;;20.50;28.59;101156.13;5013872;28;20053;-71
2022/03/26 10:36:45;;;;;;;32.28;10.43;;;;;;;20.60;28.36;101164.00;5014386;28;20041;-72
2022/03/26 10:39:30;;;;;;;64.33;12.10;;;;;;;20.58;28.29;101149.25;5014275;28;20022;-71
2022/03/26 10:41:57;;;;;;;26.05;9.15;;;;;;;20.60;28.17;101157.44;5013589;28;20382;-71
2022/03/26 10:44:27;;;;;;;20.92;10.27;;;;;;;20.83;28.26;101150.25;5012656;28;20386;-71
2022/03/26 10:46:57;;;;;;;30.73;10.43;;;;;;;20.82;28.51;101151.56;4996356;28;20037;-72
2022/03/26 10:49:37;;;;;;;29.58;11.43;;;;;;;20.82;28.65;101154.47;5012665;28;20041;-70
2022/03/26 10:52:15;;;;;;;20.88;9.32;;;;;;;20.88;28.82;101145.75;5012582;28;20029;-72
2022/03/26 10:54:41;;;;;;;19.20;9.57;;;;;;;20.85;28.59;101153.44;5013572;28;20507;-70
2022/03/26 10:57:08;;;;;;;19.83;9.05;;;;;;;20.86;28.92;101148.41;5012828;28;20037;-69
2022/03/26 10:59:36;;;;;;;20.08;9.57;;;;;;;20.97;28.85;101154.16;5012280;28;20037;-72
2022/03/26 11:02:01;;;;;;;31.38;9.85;;;;;;;21.03;28.74;101149.16;5012345;28;20029;-71
2022/03/26 11:04:31;;;;;;;34.50;10.75;;;;;;;21.19;29.32;101141.75;5028987;28;20036;-72
2022/03/26 11:06:57;;;;;;;32.15;9.88;;;;;;;21.14;29.34;101142.56;5012434;28;20128;-70
2022/03/26 11:09:22;;;;;;;20.58;9.63;;;;;;;20.92;30.49;101138.38;5012531;28;20507;-70
2022/03/26 11:11:53;;;;;;;35.10;9.35;;;;;;;20.85;30.34;101146.84;5012536;28;20455;-71
2022/03/26 11:14:31;;;;;;;15.85;8.38;;;;;;;20.79;30.62;101138.16;5012456;28;20034;-72
2022/03/26 11:17:21;;;;;;;14.93;8.90;;;;;;;20.56;30.66;101146.13;5013802;28;20053;-71
2022/03/26 11:20:28;;;;;;;14.88;8.18;;;;;;;20.36;31.74;101134.03;5031095;28;20056;-69